Time;durP1;ratioP1;P1;durP2;ratioP2;P2;SDS_P1;SDS_P2;PMS_P1;PMS_P2;Temp;Humidity;BMP_temperature;BMP_pressure;BME280_temperature;BME280_humidity;BME280_pressure;Samples;Min_cycle;Max_cycle;Signal;HPM_P1;HPM_P2
2022/08/29 00:05:59;;;;;;;8.5;11.1;;;;;;;18.8;100;98540;;;;
2022/08/29 00:16:59;;;;;;;8.5;11.1;;;;;;;18.7;100;98550;;;;
2022/08/29 00:27:00;;;;;;;11.3;14.9;;;;;;;18.5;100;98540;;;;
2022/08/29 00:37:59;;;;;;;11.3;14.9;;;;;;;18.6;100;98550;;;;
2022/08/29 00:48:59;;;;;;;11.3;14.9;;;;;;;18.6;100;98540;;;;
2022/08/29 00:59:59;;;;;;;9.2;13;;;;;;;18.6;100;98540;;;;
2022/08/29 01:09:59;;;;;;;9.2;13;;;;;;;18.6;100;98540;;;;
2022/08/29 01:20:59;;;;;;;9.2;13;;;;;;;18.9;100;98550;;;;
2022/08/29 01:30:59;;;;;;;11.9;15.9;;;;;;;18.9;100;98540;;;;
2022/08/29 01:40:59;;;;;;;11.9;15.9;;;;;;;18.8;100;98550;;;;
2022/08/29 01:51:59;;;;;;;11.9;15.9;;;;;;;18.8;100;98550;;;;
2022/08/29 02:01:59;;;;;;;10.4;16;;;;;;;18.8;100;98560;;;;
2022/08/29 02:12:59;;;;;;;10.4;16;;;;;;;18.7;100;98560;;;;
2022/08/29 02:22:59;;;;;;;10.4;16;;;;;;;18.9;100;98570;;;;
2022/08/29 02:33:59;;;;;;;11.1;15;;;;;;;18.8;100;98560;;;;
2022/08/29 02:45:00;;;;;;;11.1;15;;;;;;;18.6;100;98560;;;;
2022/08/29 02:54:59;;;;;;;11.1;15;;;;;;;18.7;100;98570;;;;
2022/08/29 03:05:59;;;;;;;12.3;15.8;;;;;;;18.6;100;98570;;;;
2022/08/29 03:16:59;;;;;;;12.3;15.8;;;;;;;18.6;100;98570;;;;
2022/08/29 03:27:59;;;;;;;12.9;19.7;;;;;;;18.5;100;98580;;;;
2022/08/29 03:38:59;;;;;;;12.9;19.7;;;;;;;18.5;100;98590;;;;
2022/08/29 03:48:59;;;;;;;12.9;19.7;;;;;;;18.3;100;98600;;;;
2022/08/29 04:00:00;;;;;;;12.3;17.5;;;;;;;18.3;100;98610;;;;
2022/08/29 04:10:00;;;;;;;12.3;17.5;;;;;;;18.4;100;98620;;;;
2022/08/29 04:20:59;;;;;;;12.3;17.5;;;;;;;18;100;98630;;;;
2022/08/29 04:31:59;;;;;;;12.7;18.7;;;;;;;18.1;100;98640;;;;
2022/08/29 04:41:59;;;;;;;12.7;18.7;;;;;;;18;100;98660;;;;
2022/08/29 04:52:59;;;;;;;12.7;18.7;;;;;;;18.1;100;98670;;;;
2022/08/29 05:03:59;;;;;;;12;18.3;;;;;;;18;100;98690;;;;
2022/08/29 05:13:59;;;;;;;12;18.3;;;;;;;17.8;100;98690;;;;
2022/08/29 05:24:59;;;;;;;12;18.3;;;;;;;17.7;100;98710;;;;
2022/08/29 05:34:59;;;;;;;12.5;21.5;;;;;;;17.7;100;98710;;;;
2022/08/29 05:44:59;;;;;;;12.5;21.5;;;;;;;17.8;100;98720;;;;
2022/08/29 05:55:59;;;;;;;12.5;21.5;;;;;;;17.6;100;98730;;;;
2022/08/29 06:05:59;;;;;;;13;18.9;;;;;;;17.7;100;98740;;;;
2022/08/29 06:16:59;;;;;;;13;18.9;;;;;;;17.5;100;98750;;;;
2022/08/29 06:26:59;;;;;;;13;18.9;;;;;;;17.5;100;98760;;;;
2022/08/29 06:36:59;;;;;;;12.2;16.8;;;;;;;17.4;100;98760;;;;
2022/08/29 06:46:59;;;;;;;12.2;16.8;;;;;;;17.5;100;98780;;;;
2022/08/29 06:57:59;;;;;;;11.4;19;;;;;;;17.8;100;98790;;;;
2022/08/29 07:08:59;;;;;;;11.4;19;;;;;;;18.1;100;98800;;;;
2022/08/29 07:18:59;;;;;;;11.4;19;;;;;;;18.1;100;98810;;;;
2022/08/29 07:30:01;;;;;;;11;15.9;;;;;;;18.5;100;98810;;;;
2022/08/29 07:40:59;;;;;;;11;15.9;;;;;;;18.9;100;98810;;;;
2022/08/29 07:50:59;;;;;;;11;15.9;;;;;;;19.3;100;98820;;;;
2022/08/29 08:00:59;;;;;;;9.9;15.5;;;;;;;19.9;100;98820;;;;
2022/08/29 08:12:00;;;;;;;9.9;15.5;;;;;;;19.9;100;98830;;;;
2022/08/29 08:21:59;;;;;;;9.9;15.5;;;;;;;20.6;100;98850;;;;
2022/08/29 08:31:59;;;;;;;8.4;14;;;;;;;21.3;100;98860;;;;
2022/08/29 08:43:00;;;;;;;8.4;14;;;;;;;21.7;100;98870;;;;
2022/08/29 08:52:59;;;;;;;8.4;14;;;;;;;22.1;100;98870;;;;
2022/08/29 09:04:01;;;;;;;7.1;12.1;;;;;;;21.8;100;98870;;;;
2022/08/29 09:13:59;;;;;;;7.1;12.1;;;;;;;21.7;100;98870;;;;
2022/08/29 09:24:59;;;;;;;7.1;12.1;;;;;;;22.2;100;98870;;;;
2022/08/29 09:34:59;;;;;;;5.7;10.2;;;;;;;22.9;100;98870;;;;
2022/08/29 09:44:59;;;;;;;5.7;10.2;;;;;;;22.6;100;98870;;;;
2022/08/29 09:54:59;;;;;;;5.7;10.2;;;;;;;22.8;100;98870;;;;
2022/08/29 10:05:59;;;;;;;5.3;9.6;;;;;;;22.5;100;98870;;;;
2022/08/29 10:15:59;;;;;;;5.3;9.6;;;;;;;22.6;100;98870;;;;
2022/08/29 10:26:59;;;;;;;5.3;9.6;;;;;;;23.2;100;98860;;;;
2022/08/29 10:36:59;;;;;;;5.8;8.9;;;;;;;23.4;100;98860;;;;
2022/08/29 10:47:59;;;;;;;5.8;8.9;;;;;;;23.1;100;98850;;;;
2022/08/29 10:57:59;;;;;;;4.8;7;;;;;;;24.4;100;98850;;;;
2022/08/29 11:08:59;;;;;;;4.8;7;;;;;;;24.9;100;98860;;;;
2022/08/29 11:18:59;;;;;;;4.8;7;;;;;;;24.8;100;98850;;;;
2022/08/29 11:30:00;;;;;;;4.7;8.5;;;;;;;24.4;100;98840;;;;
2022/08/29 11:39:59;;;;;;;4.7;8.5;;;;;;;24.5;100;98840;;;;
2022/08/29 11:51:00;;;;;;;4.7;8.5;;;;;;;24;100;98840;;;;
2022/08/29 12:00:59;;;;;;;5.3;9.3;;;;;;;23.9;100;98840;;;;
2022/08/29 12:11:59;;;;;;;5.3;9.3;;;;;;;24.1;100;98830;;;;
2022/08/29 12:21:59;;;;;;;5.3;9.3;;;;;;;25;100;98830;;;;
2022/08/29 12:32:59;;;;;;;4.9;8.3;;;;;;;25;100;98830;;;;
2022/08/29 12:42:59;;;;;;;4.9;8.3;;;;;;;25.2;100;98830;;;;
2022/08/29 12:53:59;;;;;;;4.9;8.3;;;;;;;25.2;100;98830;;;;
2022/08/29 13:03:59;;;;;;;4.5;9.1;;;;;;;24.5;100;98820;;;;
2022/08/29 13:14:59;;;;;;;4.5;9.1;;;;;;;24.5;100;98820;;;;
2022/08/29 13:24:59;;;;;;;4.5;9.1;;;;;;;25.2;100;98820;;;;
2022/08/29 13:35:59;;;;;;;5.4;8.4;;;;;;;24.8;100;98820;;;;
2022/08/29 13:46:59;;;;;;;5.4;8.4;;;;;;;24.6;100;98800;;;;
2022/08/29 13:56:59;;;;;;;5.4;8.4;;;;;;;25.1;100;98810;;;;
2022/08/29 14:07:59;;;;;;;4.3;8.8;;;;;;;24.9;100;98810;;;;
2022/08/29 14:17:59;;;;;;;4.3;8.8;;;;;;;25.6;100;98810;;;;
2022/08/29 14:27:59;;;;;;;4.6;8.7;;;;;;;25.1;100;98810;;;;
2022/08/29 14:38:59;;;;;;;4.6;8.7;;;;;;;25;100;98820;;;;
2022/08/29 14:49:00;;;;;;;4.6;8.7;;;;;;;24.8;100;98810;;;;
2022/08/29 14:59:59;;;;;;;4.1;7.4;;;;;;;25.6;99;98800;;;;
2022/08/29 15:09:59;;;;;;;4.1;7.4;;;;;;;26.9;93.2;98800;;;;
2022/08/29 15:19:59;;;;;;;4.1;7.4;;;;;;;28.8;83.9;98800;;;;
2022/08/29 15:30:59;;;;;;;3.1;6.3;;;;;;;29.1;78.4;98790;;;;
2022/08/29 15:40:59;;;;;;;3.1;6.3;;;;;;;30.2;70.2;98790;;;;
2022/08/29 15:50:59;;;;;;;3.1;6.3;;;;;;;30.2;69.6;98790;;;;
2022/08/29 16:00:59;;;;;;;3.4;5.8;;;;;;;29.8;72.9;98790;;;;
2022/08/29 16:10:59;;;;;;;3.4;5.8;;;;;;;30.1;72.2;98780;;;;
2022/08/29 16:20:59;;;;;;;3.4;5.8;;;;;;;30;72.9;98780;;;;
2022/08/29 16:31:59;;;;;;;3.9;9.1;;;;;;;27.1;81.2;98760;;;;
2022/08/29 16:42:59;;;;;;;3.9;9.1;;;;;;;25.3;91.1;98750;;;;
2022/08/29 16:53:01;;;;;;;3.9;9.1;;;;;;;24;97;98750;;;;
2022/08/29 17:02:59;;;;;;;5.5;8.5;;;;;;;23.4;100;98750;;;;
2022/08/29 17:24:59;;;;;;;5.5;8.5;;;;;;;21.9;100;98770;;;;
2022/08/29 17:34:59;;;;;;;5.6;10.1;;;;;;;21;100;98780;;;;
2022/08/29 17:44:59;;;;;;;5.6;10.1;;;;;;;20.4;100;98780;;;;
2022/08/29 17:55:01;;;;;;;5.6;10.1;;;;;;;19.8;100;98800;;;;
2022/08/29 18:05:59;;;;;;;7.3;14.8;;;;;;;19.2;100;98810;;;;
2022/08/29 18:16:59;;;;;;;7.3;14.8;;;;;;;18.8;100;98810;;;;
2022/08/29 18:27:59;;;;;;;7.3;14.8;;;;;;;18.2;100;98830;;;;
2022/08/29 18:37:59;;;;;;;7.9;12.5;;;;;;;17.9;100;98840;;;;
2022/08/29 18:47:59;;;;;;;7.9;12.5;;;;;;;17.5;100;98840;;;;
2022/08/29 18:57:59;;;;;;;7.9;12.5;;;;;;;17.3;100;98860;;;;
2022/08/29 19:07:59;;;;;;;8.6;13.4;;;;;;;17;100;98860;;;;
2022/08/29 19:18:59;;;;;;;8.6;13.4;;;;;;;16.8;100;98880;;;;
2022/08/29 19:29:59;;;;;;;9.1;16;;;;;;;16.5;100;98900;;;;
2022/08/29 19:39:59;;;;;;;9.1;16;;;;;;;16.3;100;98900;;;;
2022/08/29 19:50:59;;;;;;;9.1;16;;;;;;;15.9;100;98910;;;;
2022/08/29 20:02:00;;;;;;;8.2;15.1;;;;;;;15.7;100;98920;;;;
2022/08/29 20:12:59;;;;;;;8.2;15.1;;;;;;;15.6;100;98920;;;;
2022/08/29 20:23:59;;;;;;;8.2;15.1;;;;;;;15.4;100;98920;;;;
2022/08/29 20:34:59;;;;;;;10.2;16.4;;;;;;;15.2;100;98930;;;;
2022/08/29 20:45:59;;;;;;;10.2;16.4;;;;;;;14.9;100;98930;;;;
2022/08/29 20:56:59;;;;;;;10.2;16.4;;;;;;;14.9;100;98920;;;;
2022/08/29 21:07:59;;;;;;;7.4;10.8;;;;;;;14.7;100;98920;;;;
2022/08/29 21:19:02;;;;;;;7.4;10.8;;;;;;;14.5;100;98920;;;;
2022/08/29 21:29:00;;;;;;;7.5;14.6;;;;;;;14.4;100;98920;;;;
2022/08/29 21:38:59;;;;;;;7.5;14.6;;;;;;;14.2;100;98930;;;;
2022/08/29 21:49:59;;;;;;;7.5;14.6;;;;;;;14.1;100;98930;;;;
2022/08/29 21:59:59;;;;;;;6.5;12.9;;;;;;;13.9;100;98940;;;;
2022/08/29 22:10:59;;;;;;;6.5;12.9;;;;;;;13.7;100;98940;;;;
2022/08/29 22:20:59;;;;;;;6.5;12.9;;;;;;;13.6;100;98930;;;;
2022/08/29 22:31:00;;;;;;;5.2;8.8;;;;;;;13.4;100;98930;;;;
2022/08/29 22:40:59;;;;;;;5.2;8.8;;;;;;;13.3;100;98930;;;;
2022/08/29 22:52:00;;;;;;;5.2;8.8;;;;;;;13.1;100;98930;;;;
2022/08/29 23:03:01;;;;;;;5.4;10.3;;;;;;;13;100;98930;;;;
2022/08/29 23:12:59;;;;;;;5.4;10.3;;;;;;;12.8;100;98930;;;;
2022/08/29 23:22:59;;;;;;;5.4;10.3;;;;;;;12.8;100;98930;;;;
2022/08/29 23:32:59;;;;;;;5.9;9.8;;;;;;;12.9;100;98940;;;;
2022/08/29 23:42:59;;;;;;;5.9;9.8;;;;;;;12.8;100;98930;;;;
2022/08/29 23:54:00;;;;;;;5.9;9.8;;;;;;;12.7;100;98930;;;;
